sensor_id;sensor_type;location;lat;lon;timestamp;temperature;humidity
37446;DHT22;23307;51.136;14.942;2022-08-25T00:01:34;21.70;99.90
37446;DHT22;23307;51.136;14.942;2022-08-25T00:04:01;21.70;99.90
37446;DHT22;23307;51.136;14.942;2022-08-25T00:06:27;21.70;99.90
37446;DHT22;23307;51.136;14.942;2022-08-25T00:08:53;21.70;99.90
37446;DHT22;23307;51.136;14.942;2022-08-25T00:11:24;21.70;99.90
37446;DHT22;23307;51.136;14.942;2022-08-25T00:13:53;21.70;99.90
37446;DHT22;23307;51.136;14.942;2022-08-25T00:16:21;21.60;99.90
37446;DHT22;23307;51.136;14.942;2022-08-25T00:18:51;21.60;99.90
37446;DHT22;23307;51.136;14.942;2022-08-25T00:21:17;21.60;99.90
37446;DHT22;23307;51.136;14.942;2022-08-25T00:23:43;21.60;99.90
37446;DHT22;23307;51.136;14.942;2022-08-25T00:26:09;21.60;99.90
37446;DHT22;23307;51.136;14.942;2022-08-25T00:28:35;21.60;99.90
37446;DHT22;23307;51.136;14.942;2022-08-25T00:31:02;21.60;99.90
37446;DHT22;23307;51.136;14.942;2022-08-25T00:33:28;21.60;99.90
37446;DHT22;23307;51.136;14.942;2022-08-25T00:35:56;21.60;99.90
37446;DHT22;23307;51.136;14.942;2022-08-25T00:38:22;21.60;99.90
37446;DHT22;23307;51.136;14.942;2022-08-25T00:40:49;21.50;99.90
37446;DHT22;23307;51.136;14.942;2022-08-25T00:43:45;21.60;99.90
37446;DHT22;23307;51.136;14.942;2022-08-25T00:46:14;21.60;99.90
37446;DHT22;23307;51.136;14.942;2022-08-25T00:48:43;21.60;99.90
37446;DHT22;23307;51.136;14.942;2022-08-25T00:51:13;21.50;99.90
37446;DHT22;23307;51.136;14.942;2022-08-25T00:53:41;21.60;99.90
37446;DHT22;23307;51.136;14.942;2022-08-25T00:56:07;21.60;99.90
37446;DHT22;23307;51.136;14.942;2022-08-25T00:58:34;21.60;99.90
37446;DHT22;23307;51.136;14.942;2022-08-25T01:01:00;21.60;99.90
37446;DHT22;23307;51.136;14.942;2022-08-25T01:03:28;21.50;99.90
37446;DHT22;23307;51.136;14.942;2022-08-25T01:05:54;21.50;99.90
37446;DHT22;23307;51.136;14.942;2022-08-25T01:08:24;21.50;99.90
37446;DHT22;23307;51.136;14.942;2022-08-25T01:10:52;21.40;99.90
37446;DHT22;23307;51.136;14.942;2022-08-25T01:13:33;21.30;99.90
37446;DHT22;23307;51.136;14.942;2022-08-25T01:16:00;21.30;99.90
37446;DHT22;23307;51.136;14.942;2022-08-25T01:18:27;21.30;99.90
37446;DHT22;23307;51.136;14.942;2022-08-25T01:20:57;21.30;99.90
37446;DHT22;23307;51.136;14.942;2022-08-25T01:23:24;21.20;99.90
37446;DHT22;23307;51.136;14.942;2022-08-25T01:25:57;21.30;99.90
37446;DHT22;23307;51.136;14.942;2022-08-25T01:28:26;21.20;99.90
37446;DHT22;23307;51.136;14.942;2022-08-25T01:30:51;21.30;99.90
37446;DHT22;23307;51.136;14.942;2022-08-25T01:33:17;21.30;99.90
37446;DHT22;23307;51.136;14.942;2022-08-25T01:35:44;21.30;99.90
37446;DHT22;23307;51.136;14.942;2022-08-25T01:38:10;21.30;99.90
37446;DHT22;23307;51.136;14.942;2022-08-25T01:40:37;21.30;99.90
37446;DHT22;23307;51.136;14.942;2022-08-25T01:43:15;21.20;99.90
37446;DHT22;23307;51.136;14.942;2022-08-25T01:45:45;21.20;99.90
37446;DHT22;23307;51.136;14.942;2022-08-25T01:48:12;21.30;99.90
37446;DHT22;23307;51.136;14.942;2022-08-25T01:50:39;21.20;99.90
37446;DHT22;23307;51.136;14.942;2022-08-25T01:53:29;21.20;99.90
37446;DHT22;23307;51.136;14.942;2022-08-25T01:55:55;21.20;99.90
37446;DHT22;23307;51.136;14.942;2022-08-25T01:58:37;21.20;99.90
37446;DHT22;23307;51.136;14.942;2022-08-25T02:01:06;21.10;99.90
37446;DHT22;23307;51.136;14.942;2022-08-25T02:03:34;21.10;99.90
37446;DHT22;23307;51.136;14.942;2022-08-25T02:06:02;21.00;99.90
37446;DHT22;23307;51.136;14.942;2022-08-25T02:08:27;21.00;99.90
37446;DHT22;23307;51.136;14.942;2022-08-25T02:10:53;21.00;99.90
37446;DHT22;23307;51.136;14.942;2022-08-25T02:13:20;20.90;99.90
37446;DHT22;23307;51.136;14.942;2022-08-25T02:15:49;20.90;99.90
37446;DHT22;23307;51.136;14.942;2022-08-25T02:18:16;20.80;99.90
37446;DHT22;23307;51.136;14.942;2022-08-25T02:20:41;20.80;99.90
37446;DHT22;23307;51.136;14.942;2022-08-25T02:23:07;20.70;99.90
37446;DHT22;23307;51.136;14.942;2022-08-25T02:25:33;20.70;99.90
37446;DHT22;23307;51.136;14.942;2022-08-25T02:27:59;20.70;99.90
37446;DHT22;23307;51.136;14.942;2022-08-25T02:30:25;20.60;99.90
37446;DHT22;23307;51.136;14.942;2022-08-25T02:32:52;20.60;99.90
37446;DHT22;23307;51.136;14.942;2022-08-25T02:35:17;20.60;99.90
37446;DHT22;23307;51.136;14.942;2022-08-25T02:37:43;20.60;99.90
37446;DHT22;23307;51.136;14.942;2022-08-25T02:40:09;20.60;99.90
37446;DHT22;23307;51.136;14.942;2022-08-25T02:42:35;20.60;99.90
37446;DHT22;23307;51.136;14.942;2022-08-25T02:45:00;20.60;99.90
37446;DHT22;23307;51.136;14.942;2022-08-25T02:47:26;20.60;99.90
37446;DHT22;23307;51.136;14.942;2022-08-25T02:49:51;20.60;99.90
37446;DHT22;23307;51.136;14.942;2022-08-25T02:52:17;20.50;99.90
37446;DHT22;23307;51.136;14.942;2022-08-25T02:54:43;20.50;99.90
37446;DHT22;23307;51.136;14.942;2022-08-25T02:57:09;20.50;99.90
37446;DHT22;23307;51.136;14.942;2022-08-25T02:59:37;20.50;99.90
37446;DHT22;23307;51.136;14.942;2022-08-25T03:02:04;20.40;99.90
37446;DHT22;23307;51.136;14.942;2022-08-25T03:04:30;20.40;99.90
37446;DHT22;23307;51.136;14.942;2022-08-25T03:06:56;20.30;99.90
37446;DHT22;23307;51.136;14.942;2022-08-25T03:09:22;20.30;99.90
37446;DHT22;23307;51.136;14.942;2022-08-25T03:11:48;20.30;99.90
37446;DHT22;23307;51.136;14.942;2022-08-25T03:14:13;20.30;99.90
37446;DHT22;23307;51.136;14.942;2022-08-25T03:16:39;20.30;99.90
37446;DHT22;23307;51.136;14.942;2022-08-25T03:19:07;20.30;99.90
37446;DHT22;23307;51.136;14.942;2022-08-25T03:21:32;20.30;99.90
37446;DHT22;23307;51.136;14.942;2022-08-25T03:23:58;20.30;99.90
37446;DHT22;23307;51.136;14.942;2022-08-25T03:26:24;20.30;99.90
37446;DHT22;23307;51.136;14.942;2022-08-25T03:29:09;20.20;99.90
37446;DHT22;23307;51.136;14.942;2022-08-25T03:31:35;20.20;99.90
37446;DHT22;23307;51.136;14.942;2022-08-25T03:34:01;20.20;99.90
37446;DHT22;23307;51.136;14.942;2022-08-25T03:36:27;20.10;99.90
37446;DHT22;23307;51.136;14.942;2022-08-25T03:38:53;20.20;99.90
37446;DHT22;23307;51.136;14.942;2022-08-25T03:41:26;20.20;99.90
37446;DHT22;23307;51.136;14.942;2022-08-25T03:43:57;20.20;99.90
37446;DHT22;23307;51.136;14.942;2022-08-25T03:46:29;20.30;99.90
37446;DHT22;23307;51.136;14.942;2022-08-25T03:48:56;20.30;99.90
37446;DHT22;23307;51.136;14.942;2022-08-25T03:51:29;20.20;99.90
37446;DHT22;23307;51.136;14.942;2022-08-25T03:53:55;20.20;99.90
37446;DHT22;23307;51.136;14.942;2022-08-25T03:56:21;20.20;99.90
37446;DHT22;23307;51.136;14.942;2022-08-25T03:58:46;20.20;99.90
37446;DHT22;23307;51.136;14.942;2022-08-25T04:01:13;20.20;99.90
37446;DHT22;23307;51.136;14.942;2022-08-25T04:03:39;20.20;99.90
37446;DHT22;23307;51.136;14.942;2022-08-25T04:06:05;20.20;99.90
37446;DHT22;23307;51.136;14.942;2022-08-25T04:08:31;20.20;99.90
37446;DHT22;23307;51.136;14.942;2022-08-25T04:10:56;20.10;99.90
37446;DHT22;23307;51.136;14.942;2022-08-25T04:13:22;20.10;99.90
37446;DHT22;23307;51.136;14.942;2022-08-25T04:15:48;20.10;99.90
37446;DHT22;23307;51.136;14.942;2022-08-25T04:18:14;20.10;99.90
37446;DHT22;23307;51.136;14.942;2022-08-25T04:20:40;20.10;99.90
37446;DHT22;23307;51.136;14.942;2022-08-25T04:23:07;20.10;99.90
37446;DHT22;23307;51.136;14.942;2022-08-25T04:25:32;20.10;99.90
37446;DHT22;23307;51.136;14.942;2022-08-25T04:27:58;20.10;99.90
37446;DHT22;23307;51.136;14.942;2022-08-25T04:30:23;20.10;99.90
37446;DHT22;23307;51.136;14.942;2022-08-25T04:32:49;20.10;99.90
37446;DHT22;23307;51.136;14.942;2022-08-25T04:35:15;20.10;99.90
37446;DHT22;23307;51.136;14.942;2022-08-25T04:37:41;20.10;99.90
37446;DHT22;23307;51.136;14.942;2022-08-25T04:40:07;20.10;99.90
37446;DHT22;23307;51.136;14.942;2022-08-25T04:42:34;20.10;99.90
37446;DHT22;23307;51.136;14.942;2022-08-25T04:45:00;20.10;99.90
37446;DHT22;23307;51.136;14.942;2022-08-25T04:47:26;20.10;99.90
37446;DHT22;23307;51.136;14.942;2022-08-25T04:49:52;20.10;99.90
37446;DHT22;23307;51.136;14.942;2022-08-25T04:52:18;20.10;99.90
37446;DHT22;23307;51.136;14.942;2022-08-25T04:54:45;20.10;99.90
37446;DHT22;23307;51.136;14.942;2022-08-25T04:57:10;20.10;99.90
37446;DHT22;23307;51.136;14.942;2022-08-25T04:59:36;20.20;99.90
37446;DHT22;23307;51.136;14.942;2022-08-25T05:02:02;20.20;99.90
37446;DHT22;23307;51.136;14.942;2022-08-25T05:04:30;20.30;99.90
37446;DHT22;23307;51.136;14.942;2022-08-25T05:06:56;20.30;99.90
37446;DHT22;23307;51.136;14.942;2022-08-25T05:09:22;20.30;99.90
37446;DHT22;23307;51.136;14.942;2022-08-25T05:11:47;20.30;99.90
37446;DHT22;23307;51.136;14.942;2022-08-25T05:14:13;20.30;99.90
37446;DHT22;23307;51.136;14.942;2022-08-25T05:16:42;20.30;99.90
37446;DHT22;23307;51.136;14.942;2022-08-25T05:19:08;20.30;99.90
37446;DHT22;23307;51.136;14.942;2022-08-25T05:21:33;20.30;99.90
37446;DHT22;23307;51.136;14.942;2022-08-25T05:24:00;20.40;99.90
37446;DHT22;23307;51.136;14.942;2022-08-25T05:26:27;20.40;99.90
37446;DHT22;23307;51.136;14.942;2022-08-25T05:28:55;20.40;99.90
37446;DHT22;23307;51.136;14.942;2022-08-25T05:31:22;20.50;99.90
37446;DHT22;23307;51.136;14.942;2022-08-25T05:33:48;20.50;99.90
37446;DHT22;23307;51.136;14.942;2022-08-25T05:36:15;20.50;99.90
37446;DHT22;23307;51.136;14.942;2022-08-25T05:38:42;20.60;99.90
37446;DHT22;23307;51.136;14.942;2022-08-25T05:41:10;20.60;99.90
37446;DHT22;23307;51.136;14.942;2022-08-25T05:43:40;20.60;99.90
37446;DHT22;23307;51.136;14.942;2022-08-25T05:46:07;20.70;99.90
37446;DHT22;23307;51.136;14.942;2022-08-25T05:48:32;20.70;99.90
37446;DHT22;23307;51.136;14.942;2022-08-25T05:50:59;20.70;99.90
37446;DHT22;23307;51.136;14.942;2022-08-25T05:53:29;20.60;99.90
37446;DHT22;23307;51.136;14.942;2022-08-25T05:55:56;20.60;99.90
37446;DHT22;23307;51.136;14.942;2022-08-25T05:58:24;20.50;99.90
37446;DHT22;23307;51.136;14.942;2022-08-25T06:00:50;20.50;99.90
37446;DHT22;23307;51.136;14.942;2022-08-25T06:03:16;20.40;99.90
37446;DHT22;23307;51.136;14.942;2022-08-25T06:05:42;20.50;99.90
37446;DHT22;23307;51.136;14.942;2022-08-25T06:08:08;20.50;99.90
37446;DHT22;23307;51.136;14.942;2022-08-25T06:10:35;20.50;99.90
37446;DHT22;23307;51.136;14.942;2022-08-25T06:13:01;20.60;99.90
37446;DHT22;23307;51.136;14.942;2022-08-25T06:15:27;20.60;99.90
37446;DHT22;23307;51.136;14.942;2022-08-25T06:17:53;20.60;99.90
37446;DHT22;23307;51.136;14.942;2022-08-25T06:20:23;20.70;99.90
37446;DHT22;23307;51.136;14.942;2022-08-25T06:22:50;20.70;99.90
37446;DHT22;23307;51.136;14.942;2022-08-25T06:25:17;20.80;99.90
37446;DHT22;23307;51.136;14.942;2022-08-25T06:27:43;20.90;99.90
37446;DHT22;23307;51.136;14.942;2022-08-25T06:30:12;21.00;99.90
37446;DHT22;23307;51.136;14.942;2022-08-25T06:32:41;21.10;99.90
37446;DHT22;23307;51.136;14.942;2022-08-25T06:35:10;21.20;99.90
37446;DHT22;23307;51.136;14.942;2022-08-25T06:37:36;21.30;99.90
37446;DHT22;23307;51.136;14.942;2022-08-25T06:40:04;21.40;99.90
37446;DHT22;23307;51.136;14.942;2022-08-25T06:42:30;21.50;99.90
37446;DHT22;23307;51.136;14.942;2022-08-25T06:44:56;21.60;99.90
37446;DHT22;23307;51.136;14.942;2022-08-25T06:47:21;21.70;99.90
37446;DHT22;23307;51.136;14.942;2022-08-25T06:49:47;21.70;99.90
37446;DHT22;23307;51.136;14.942;2022-08-25T06:52:13;21.80;99.90
37446;DHT22;23307;51.136;14.942;2022-08-25T06:54:39;22.00;99.90
37446;DHT22;23307;51.136;14.942;2022-08-25T06:57:05;22.10;99.90
37446;DHT22;23307;51.136;14.942;2022-08-25T06:59:32;22.20;99.90
37446;DHT22;23307;51.136;14.942;2022-08-25T07:01:58;22.40;99.90
37446;DHT22;23307;51.136;14.942;2022-08-25T07:04:24;22.50;99.90
37446;DHT22;23307;51.136;14.942;2022-08-25T07:06:49;22.60;99.90
37446;DHT22;23307;51.136;14.942;2022-08-25T07:09:15;22.70;99.90
37446;DHT22;23307;51.136;14.942;2022-08-25T07:11:41;22.70;99.90
37446;DHT22;23307;51.136;14.942;2022-08-25T07:14:09;22.80;99.90
37446;DHT22;23307;51.136;14.942;2022-08-25T07:16:36;23.00;99.90
37446;DHT22;23307;51.136;14.942;2022-08-25T07:19:02;23.00;99.90
37446;DHT22;23307;51.136;14.942;2022-08-25T07:21:30;23.10;99.90
37446;DHT22;23307;51.136;14.942;2022-08-25T07:23:55;23.10;99.90
37446;DHT22;23307;51.136;14.942;2022-08-25T07:26:25;23.20;99.90
37446;DHT22;23307;51.136;14.942;2022-08-25T07:28:51;23.30;99.90
37446;DHT22;23307;51.136;14.942;2022-08-25T07:31:17;23.30;99.90
37446;DHT22;23307;51.136;14.942;2022-08-25T07:33:42;23.40;99.90
37446;DHT22;23307;51.136;14.942;2022-08-25T07:36:29;23.40;99.90
37446;DHT22;23307;51.136;14.942;2022-08-25T07:38:56;23.50;99.90
37446;DHT22;23307;51.136;14.942;2022-08-25T07:41:22;23.60;99.90
37446;DHT22;23307;51.136;14.942;2022-08-25T07:43:47;23.80;99.90
37446;DHT22;23307;51.136;14.942;2022-08-25T07:46:13;23.90;99.90
37446;DHT22;23307;51.136;14.942;2022-08-25T07:48:39;24.00;99.90
37446;DHT22;23307;51.136;14.942;2022-08-25T07:51:11;24.00;99.90
37446;DHT22;23307;51.136;14.942;2022-08-25T07:53:38;24.00;99.90
37446;DHT22;23307;51.136;14.942;2022-08-25T07:56:12;24.10;99.90
37446;DHT22;23307;51.136;14.942;2022-08-25T07:58:39;24.10;99.90
37446;DHT22;23307;51.136;14.942;2022-08-25T08:01:06;24.20;99.90
37446;DHT22;23307;51.136;14.942;2022-08-25T08:03:31;24.40;99.90
37446;DHT22;23307;51.136;14.942;2022-08-25T08:06:05;24.40;99.90
37446;DHT22;23307;51.136;14.942;2022-08-25T08:08:31;24.50;99.90
37446;DHT22;23307;51.136;14.942;2022-08-25T08:10:57;24.70;99.90
37446;DHT22;23307;51.136;14.942;2022-08-25T08:13:24;24.80;99.90
37446;DHT22;23307;51.136;14.942;2022-08-25T08:15:51;24.90;99.90
37446;DHT22;23307;51.136;14.942;2022-08-25T08:18:18;25.10;99.90
37446;DHT22;23307;51.136;14.942;2022-08-25T08:20:45;25.40;99.90
37446;DHT22;23307;51.136;14.942;2022-08-25T08:23:11;25.50;99.90
37446;DHT22;23307;51.136;14.942;2022-08-25T08:25:37;25.50;99.90
37446;DHT22;23307;51.136;14.942;2022-08-25T08:28:02;25.60;99.90
37446;DHT22;23307;51.136;14.942;2022-08-25T08:30:28;25.70;99.90
37446;DHT22;23307;51.136;14.942;2022-08-25T08:32:54;25.70;99.90
37446;DHT22;23307;51.136;14.942;2022-08-25T08:35:20;25.80;99.90
37446;DHT22;23307;51.136;14.942;2022-08-25T08:37:46;25.90;99.90
37446;DHT22;23307;51.136;14.942;2022-08-25T08:40:13;25.90;99.90
37446;DHT22;23307;51.136;14.942;2022-08-25T08:43:04;25.90;99.90
37446;DHT22;23307;51.136;14.942;2022-08-25T08:45:36;25.90;99.90
37446;DHT22;23307;51.136;14.942;2022-08-25T08:56:18;25.90;99.90
37446;DHT22;23307;51.136;14.942;2022-08-25T08:58:59;26.00;99.90
37446;DHT22;23307;51.136;14.942;2022-08-25T09:01:28;26.30;99.90
37446;DHT22;23307;51.136;14.942;2022-08-25T09:04:14;26.70;99.90
37446;DHT22;23307;51.136;14.942;2022-08-25T09:06:44;26.90;99.90
37446;DHT22;23307;51.136;14.942;2022-08-25T09:09:14;27.00;99.90
37446;DHT22;23307;51.136;14.942;2022-08-25T09:12:06;27.20;99.90
37446;DHT22;23307;51.136;14.942;2022-08-25T09:20:07;27.70;99.90
37446;DHT22;23307;51.136;14.942;2022-08-25T09:25:31;27.50;99.90
37446;DHT22;23307;51.136;14.942;2022-08-25T09:28:05;27.40;99.90
37446;DHT22;23307;51.136;14.942;2022-08-25T09:30:44;27.40;99.90
37446;DHT22;23307;51.136;14.942;2022-08-25T09:33:17;27.50;99.90
37446;DHT22;23307;51.136;14.942;2022-08-25T09:35:43;27.40;99.90
37446;DHT22;23307;51.136;14.942;2022-08-25T09:38:11;27.30;99.90
37446;DHT22;23307;51.136;14.942;2022-08-25T09:40:41;27.40;99.90
37446;DHT22;23307;51.136;14.942;2022-08-25T09:46:15;27.40;99.90
37446;DHT22;23307;51.136;14.942;2022-08-25T09:48:50;27.40;99.90
37446;DHT22;23307;51.136;14.942;2022-08-25T09:51:31;27.30;99.90
37446;DHT22;23307;51.136;14.942;2022-08-25T09:54:15;27.40;99.90
37446;DHT22;23307;51.136;14.942;2022-08-25T09:56:57;27.70;99.90
37446;DHT22;23307;51.136;14.942;2022-08-25T09:59:29;28.00;99.90
37446;DHT22;23307;51.136;14.942;2022-08-25T10:02:00;28.10;99.90
37446;DHT22;23307;51.136;14.942;2022-08-25T10:04:32;28.20;99.90
37446;DHT22;23307;51.136;14.942;2022-08-25T10:07:00;28.20;99.90
37446;DHT22;23307;51.136;14.942;2022-08-25T10:09:33;28.10;99.90
37446;DHT22;23307;51.136;14.942;2022-08-25T10:12:01;28.00;99.90
37446;DHT22;23307;51.136;14.942;2022-08-25T10:14:36;28.20;99.90
37446;DHT22;23307;51.136;14.942;2022-08-25T10:19:37;28.30;99.90
37446;DHT22;23307;51.136;14.942;2022-08-25T10:22:24;28.40;99.90
37446;DHT22;23307;51.136;14.942;2022-08-25T10:24:56;28.40;99.90
37446;DHT22;23307;51.136;14.942;2022-08-25T10:30:13;28.60;99.90
37446;DHT22;23307;51.136;14.942;2022-08-25T10:32:54;28.50;99.90
37446;DHT22;23307;51.136;14.942;2022-08-25T10:35:33;28.50;99.90
37446;DHT22;23307;51.136;14.942;2022-08-25T10:43:34;28.30;99.90
37446;DHT22;23307;51.136;14.942;2022-08-25T10:46:25;28.50;99.90
37446;DHT22;23307;51.136;14.942;2022-08-25T10:49:43;28.80;99.90
37446;DHT22;23307;51.136;14.942;2022-08-25T10:54:46;29.10;99.90
37446;DHT22;23307;51.136;14.942;2022-08-25T11:08:36;29.90;99.90
37446;DHT22;23307;51.136;14.942;2022-08-25T11:13:59;30.40;99.90
37446;DHT22;23307;51.136;14.942;2022-08-25T11:16:42;30.80;99.90
37446;DHT22;23307;51.136;14.942;2022-08-25T11:19:34;31.00;99.90
37446;DHT22;23307;51.136;14.942;2022-08-25T11:22:23;30.70;99.90
37446;DHT22;23307;51.136;14.942;2022-08-25T11:25:20;30.30;99.90
37446;DHT22;23307;51.136;14.942;2022-08-25T11:30:41;29.90;99.90
37446;DHT22;23307;51.136;14.942;2022-08-25T11:33:11;29.60;99.90
37446;DHT22;23307;51.136;14.942;2022-08-25T11:35:41;29.40;99.90
37446;DHT22;23307;51.136;14.942;2022-08-25T11:49:53;29.70;99.90
37446;DHT22;23307;51.136;14.942;2022-08-25T11:55:16;30.10;99.90
37446;DHT22;23307;51.136;14.942;2022-08-25T11:57:44;30.20;99.90
37446;DHT22;23307;51.136;14.942;2022-08-25T12:00:38;30.50;99.90
37446;DHT22;23307;51.136;14.942;2022-08-25T12:24:50;31.40;99.90
37446;DHT22;23307;51.136;14.942;2022-08-25T12:30:09;31.30;99.90
37446;DHT22;23307;51.136;14.942;2022-08-25T12:32:52;31.30;99.90
37446;DHT22;23307;51.136;14.942;2022-08-25T12:38:17;31.50;99.90
37446;DHT22;23307;51.136;14.942;2022-08-25T12:41:07;31.50;99.90
37446;DHT22;23307;51.136;14.942;2022-08-25T12:43:36;31.40;99.90
37446;DHT22;23307;51.136;14.942;2022-08-25T12:48:55;31.10;99.90
37446;DHT22;23307;51.136;14.942;2022-08-25T12:51:23;31.00;99.90
37446;DHT22;23307;51.136;14.942;2022-08-25T12:54:16;30.70;99.90
37446;DHT22;23307;51.136;14.942;2022-08-25T12:56:50;30.60;99.90
37446;DHT22;23307;51.136;14.942;2022-08-25T12:59:31;30.60;99.90
37446;DHT22;23307;51.136;14.942;2022-08-25T13:02:03;30.70;99.90
37446;DHT22;23307;51.136;14.942;2022-08-25T13:04:35;30.60;99.90
37446;DHT22;23307;51.136;14.942;2022-08-25T13:07:28;30.30;99.90
37446;DHT22;23307;51.136;14.942;2022-08-25T13:10:02;30.30;99.90
37446;DHT22;23307;51.136;14.942;2022-08-25T13:13:06;30.30;99.90
37446;DHT22;23307;51.136;14.942;2022-08-25T13:15:39;30.20;99.90
37446;DHT22;23307;51.136;14.942;2022-08-25T13:18:22;30.20;99.90
37446;DHT22;23307;51.136;14.942;2022-08-25T13:20:54;30.30;99.90
37446;DHT22;23307;51.136;14.942;2022-08-25T13:23:29;30.50;99.90
37446;DHT22;23307;51.136;14.942;2022-08-25T13:25:56;30.50;99.90
37446;DHT22;23307;51.136;14.942;2022-08-25T13:28:37;30.60;99.90
37446;DHT22;23307;51.136;14.942;2022-08-25T13:31:16;30.80;99.90
37446;DHT22;23307;51.136;14.942;2022-08-25T13:33:55;31.10;99.90
37446;DHT22;23307;51.136;14.942;2022-08-25T13:36:23;31.10;99.90
37446;DHT22;23307;51.136;14.942;2022-08-25T13:39:17;30.90;99.90
37446;DHT22;23307;51.136;14.942;2022-08-25T13:41:46;30.70;99.90
37446;DHT22;23307;51.136;14.942;2022-08-25T13:44:13;30.90;99.90
37446;DHT22;23307;51.136;14.942;2022-08-25T13:46:39;31.40;99.90
37446;DHT22;23307;51.136;14.942;2022-08-25T13:49:06;31.80;99.90
37446;DHT22;23307;51.136;14.942;2022-08-25T13:51:33;32.20;99.90
37446;DHT22;23307;51.136;14.942;2022-08-25T13:54:02;32.40;99.90
37446;DHT22;23307;51.136;14.942;2022-08-25T13:56:31;32.60;99.90
37446;DHT22;23307;51.136;14.942;2022-08-25T13:58:59;32.70;99.90
37446;DHT22;23307;51.136;14.942;2022-08-25T14:01:32;32.80;99.90
37446;DHT22;23307;51.136;14.942;2022-08-25T14:04:28;32.90;99.90
37446;DHT22;23307;51.136;14.942;2022-08-25T14:07:23;32.80;99.90
37446;DHT22;23307;51.136;14.942;2022-08-25T14:12:34;33.00;99.90
37446;DHT22;23307;51.136;14.942;2022-08-25T14:15:04;33.10;99.90
37446;DHT22;23307;51.136;14.942;2022-08-25T14:17:32;33.10;99.90
37446;DHT22;23307;51.136;14.942;2022-08-25T14:19:58;33.20;99.90
37446;DHT22;23307;51.136;14.942;2022-08-25T14:22:23;33.10;99.90
37446;DHT22;23307;51.136;14.942;2022-08-25T14:24:50;33.10;99.90
37446;DHT22;23307;51.136;14.942;2022-08-25T14:27:16;33.10;99.90
37446;DHT22;23307;51.136;14.942;2022-08-25T14:29:43;33.20;99.90
37446;DHT22;23307;51.136;14.942;2022-08-25T14:32:09;33.30;99.90
37446;DHT22;23307;51.136;14.942;2022-08-25T14:34:35;33.40;99.90
37446;DHT22;23307;51.136;14.942;2022-08-25T14:37:08;33.50;99.90
37446;DHT22;23307;51.136;14.942;2022-08-25T14:39:38;33.60;99.80
37446;DHT22;23307;51.136;14.942;2022-08-25T14:42:03;33.70;99.70
37446;DHT22;23307;51.136;14.942;2022-08-25T14:44:29;33.70;98.90
37446;DHT22;23307;51.136;14.942;2022-08-25T14:46:55;33.70;99.30
37446;DHT22;23307;51.136;14.942;2022-08-25T14:49:24;33.70;98.90
37446;DHT22;23307;51.136;14.942;2022-08-25T14:51:54;33.60;98.90
37446;DHT22;23307;51.136;14.942;2022-08-25T14:54:24;33.70;99.10
37446;DHT22;23307;51.136;14.942;2022-08-25T14:56:49;33.70;98.40
37446;DHT22;23307;51.136;14.942;2022-08-25T14:59:15;33.60;98.30
37446;DHT22;23307;51.136;14.942;2022-08-25T15:01:41;33.50;98.80
37446;DHT22;23307;51.136;14.942;2022-08-25T15:04:11;33.50;98.50
37446;DHT22;23307;51.136;14.942;2022-08-25T15:06:38;33.70;98.70
37446;DHT22;23307;51.136;14.942;2022-08-25T15:09:06;33.80;98.60
37446;DHT22;23307;51.136;14.942;2022-08-25T15:11:49;33.80;98.30
37446;DHT22;23307;51.136;14.942;2022-08-25T15:14:16;33.80;98.20
37446;DHT22;23307;51.136;14.942;2022-08-25T15:16:46;33.80;98.10
37446;DHT22;23307;51.136;14.942;2022-08-25T15:19:14;33.80;97.90
37446;DHT22;23307;51.136;14.942;2022-08-25T15:21:41;33.60;97.30
37446;DHT22;23307;51.136;14.942;2022-08-25T15:24:08;33.60;97.40
37446;DHT22;23307;51.136;14.942;2022-08-25T15:26:41;33.50;97.40
37446;DHT22;23307;51.136;14.942;2022-08-25T15:29:08;33.40;97.10
37446;DHT22;23307;51.136;14.942;2022-08-25T15:31:34;33.10;97.00
37446;DHT22;23307;51.136;14.942;2022-08-25T15:33:59;32.70;97.50
37446;DHT22;23307;51.136;14.942;2022-08-25T15:36:25;32.40;98.10
37446;DHT22;23307;51.136;14.942;2022-08-25T15:38:51;32.20;98.40
37446;DHT22;23307;51.136;14.942;2022-08-25T15:41:18;32.00;99.30
37446;DHT22;23307;51.136;14.942;2022-08-25T15:43:45;31.80;98.50
37446;DHT22;23307;51.136;14.942;2022-08-25T15:46:13;31.50;99.00
37446;DHT22;23307;51.136;14.942;2022-08-25T15:48:39;31.30;99.50
37446;DHT22;23307;51.136;14.942;2022-08-25T15:51:05;31.00;99.60
37446;DHT22;23307;51.136;14.942;2022-08-25T15:53:33;30.90;99.90
37446;DHT22;23307;51.136;14.942;2022-08-25T15:55:59;30.80;99.90
37446;DHT22;23307;51.136;14.942;2022-08-25T15:58:26;30.60;99.90
37446;DHT22;23307;51.136;14.942;2022-08-25T16:00:52;30.50;99.90
37446;DHT22;23307;51.136;14.942;2022-08-25T16:03:17;30.50;99.90
37446;DHT22;23307;51.136;14.942;2022-08-25T16:05:43;30.50;99.90
37446;DHT22;23307;51.136;14.942;2022-08-25T16:08:10;30.50;99.90
37446;DHT22;23307;51.136;14.942;2022-08-25T16:10:38;30.30;99.90
37446;DHT22;23307;51.136;14.942;2022-08-25T16:13:04;30.20;99.90
37446;DHT22;23307;51.136;14.942;2022-08-25T16:15:31;30.20;99.90
37446;DHT22;23307;51.136;14.942;2022-08-25T16:18:00;30.10;99.90
37446;DHT22;23307;51.136;14.942;2022-08-25T16:20:27;30.10;99.90
37446;DHT22;23307;51.136;14.942;2022-08-25T16:22:53;30.00;99.90
37446;DHT22;23307;51.136;14.942;2022-08-25T16:25:19;29.90;99.90
37446;DHT22;23307;51.136;14.942;2022-08-25T16:27:45;29.70;99.90
37446;DHT22;23307;51.136;14.942;2022-08-25T16:30:12;29.60;99.90
37446;DHT22;23307;51.136;14.942;2022-08-25T16:32:39;29.60;99.90
37446;DHT22;23307;51.136;14.942;2022-08-25T16:35:05;29.60;99.90
37446;DHT22;23307;51.136;14.942;2022-08-25T16:37:32;29.50;99.90
37446;DHT22;23307;51.136;14.942;2022-08-25T16:39:59;29.40;99.90
37446;DHT22;23307;51.136;14.942;2022-08-25T16:42:24;29.30;99.90
37446;DHT22;23307;51.136;14.942;2022-08-25T16:44:50;29.20;99.90
37446;DHT22;23307;51.136;14.942;2022-08-25T16:47:16;29.00;99.90
37446;DHT22;23307;51.136;14.942;2022-08-25T16:49:42;29.00;99.90
37446;DHT22;23307;51.136;14.942;2022-08-25T16:52:08;28.90;99.90
37446;DHT22;23307;51.136;14.942;2022-08-25T16:54:52;28.80;99.90
37446;DHT22;23307;51.136;14.942;2022-08-25T16:57:37;28.70;99.90
37446;DHT22;23307;51.136;14.942;2022-08-25T17:00:08;28.80;99.90
37446;DHT22;23307;51.136;14.942;2022-08-25T17:02:36;28.80;99.90
37446;DHT22;23307;51.136;14.942;2022-08-25T17:05:02;28.70;99.90
37446;DHT22;23307;51.136;14.942;2022-08-25T17:07:28;28.80;99.90